Time;durP1;ratioP1;P1;durP2;ratioP2;P2;SDS_P1;SDS_P2;PMS_P1;PMS_P2;Temp;Humidity;BMP_temperature;BMP_pressure;BME280_temperature;BME280_humidity;BME280_pressure;Samples;Min_cycle;Max_cycle;Signal;HPM_P1;HPM_P2
2022/06/29 00:01:29;;;;;;;12.70;11.70;;;;;;;25.39;69.87;99883.95;1785760;78;21049;-76
2022/06/29 00:03:55;;;;;;;12.40;11.15;;;;;;;25.45;69.33;99885.62;1806048;78;21104;-72
2022/06/29 00:06:22;;;;;;;12.60;11.50;;;;;;;25.44;69.26;99887.52;1783570;80;21484;-72
2022/06/29 00:08:48;;;;;;;13.78;12.58;;;;;;;25.43;69.17;99885.06;1801596;77;21006;-72
2022/06/29 00:11:15;;;;;;;14.10;12.60;;;;;;;25.41;69.27;99879.07;1796292;79;21048;-72
2022/06/29 00:13:44;;;;;;;12.93;11.83;;;;;;;25.33;69.82;99875.49;1777536;78;21529;-72
2022/06/29 00:16:11;;;;;;;13.28;12.03;;;;;;;25.20;70.04;99873.46;1780932;78;21024;-73
2022/06/29 00:18:37;;;;;;;12.75;11.65;;;;;;;25.11;71.01;99866.86;1821255;78;21339;-73
2022/06/29 00:21:04;;;;;;;12.23;11.22;;;;;;;25.04;70.74;99875.81;1815260;78;21056;-73
2022/06/29 00:23:31;;;;;;;12.90;11.75;;;;;;;25.05;70.49;99884.22;1778233;79;20993;-73
2022/06/29 00:25:57;;;;;;;12.20;11.30;;;;;;;25.10;70.60;99878.84;1798058;79;20989;-76
2022/06/29 00:28:24;;;;;;;14.28;12.90;;;;;;;25.04;70.53;99872.55;1797721;79;21052;-75
2022/06/29 00:30:51;;;;;;;12.85;11.60;;;;;;;25.00;71.05;99870.62;1789884;78;22880;-74
2022/06/29 00:33:18;;;;;;;14.28;13.08;;;;;;;24.95;70.81;99871.37;1791195;79;21073;-75
2022/06/29 00:35:44;;;;;;;13.05;11.88;;;;;;;24.88;71.56;99879.77;1771994;78;21112;-75
2022/06/29 00:38:11;;;;;;;14.13;12.43;;;;;;;24.80;71.22;99889.76;1813903;78;21123;-75
2022/06/29 00:40:37;;;;;;;12.60;11.60;;;;;;;24.77;71.65;99882.11;1807653;77;21080;-76
2022/06/29 00:43:05;;;;;;;13.70;12.40;;;;;;;24.81;71.89;99890.02;1819362;78;21537;-76
2022/06/29 00:45:33;;;;;;;13.93;12.82;;;;;;;24.79;72.40;99892.17;1795421;78;21038;-71
2022/06/29 00:47:59;;;;;;;14.43;13.03;;;;;;;24.72;72.83;99892.92;1788855;78;20994;-73
2022/06/29 00:50:29;;;;;;;15.80;14.35;;;;;;;24.68;72.96;99890.44;1810056;78;21044;-73
2022/06/29 00:52:55;;;;;;;16.07;14.63;;;;;;;24.67;73.07;99903.76;1774960;78;21719;-73
2022/06/29 00:55:22;;;;;;;15.40;13.98;;;;;;;24.61;72.89;99893.90;1802475;77;21801;-76
2022/06/29 00:57:48;;;;;;;14.60;13.32;;;;;;;24.66;72.86;99892.59;1801615;77;21007;-75
2022/06/29 01:00:16;;;;;;;15.35;13.90;;;;;;;24.73;72.47;99894.03;1804390;78;22873;-73
2022/06/29 01:02:43;;;;;;;15.38;13.98;;;;;;;24.73;72.48;99889.14;1787360;79;21525;-74
2022/06/29 01:05:09;;;;;;;14.20;12.90;;;;;;;24.71;72.50;99885.87;1819982;77;21068;-74
2022/06/29 01:07:36;;;;;;;14.70;13.30;;;;;;;24.68;72.47;99883.66;1807649;78;21766;-72
2022/06/29 01:10:04;;;;;;;15.03;13.68;;;;;;;24.65;72.53;99878.20;1785493;80;21017;-75
2022/06/29 01:12:31;;;;;;;16.23;14.63;;;;;;;24.64;72.69;99887.97;1805149;78;21013;-74
2022/06/29 01:14:58;;;;;;;14.47;13.28;;;;;;;24.65;73.63;99886.91;1796351;77;21077;-73
2022/06/29 01:17:25;;;;;;;15.68;14.10;;;;;;;24.69;73.17;99883.95;1794923;79;21080;-72
2022/06/29 01:19:52;;;;;;;14.95;13.75;;;;;;;24.65;73.16;99876.03;1800132;78;22422;-75
2022/06/29 01:22:23;;;;;;;16.50;14.87;;;;;;;24.61;73.75;99887.11;1790819;79;21696;-73
2022/06/29 01:24:50;;;;;;;16.50;15.00;;;;;;;24.51;73.74;99886.47;1778954;79;21061;-75
2022/06/29 01:27:18;;;;;;;15.93;14.47;;;;;;;24.44;74.21;99885.30;1779945;79;21095;-73
2022/06/29 01:29:46;;;;;;;15.05;13.75;;;;;;;24.39;73.89;99879.00;1768699;79;21101;-74
2022/06/29 01:32:13;;;;;;;16.05;14.65;;;;;;;24.41;74.44;99887.16;1781130;79;21186;-75
2022/06/29 01:34:39;;;;;;;14.95;13.35;;;;;;;24.44;74.37;99888.56;1768399;79;20989;-74
2022/06/29 01:37:06;;;;;;;15.00;13.45;;;;;;;24.43;74.43;99885.55;1785834;79;21036;-75
2022/06/29 01:39:33;;;;;;;15.83;14.43;;;;;;;24.40;74.33;99889.61;1773583;79;21061;-72
2022/06/29 01:41:59;;;;;;;15.00;13.65;;;;;;;24.39;74.26;99893.39;1767725;80;21045;-75
2022/06/29 01:44:26;;;;;;;16.17;14.78;;;;;;;24.39;74.28;99900.18;1779554;79;21082;-75
2022/06/29 01:46:54;;;;;;;15.40;14.00;;;;;;;24.36;74.36;99906.14;1768473;79;21427;-73
2022/06/29 01:49:21;;;;;;;15.23;13.93;;;;;;;24.41;74.41;99908.88;1768757;79;21115;-74
2022/06/29 01:51:47;;;;;;;14.63;13.43;;;;;;;24.49;74.06;99913.04;1772728;79;21079;-75
2022/06/29 01:54:14;;;;;;;15.53;14.10;;;;;;;24.48;73.87;99912.22;1804785;78;21023;-73
2022/06/29 01:56:40;;;;;;;15.88;14.40;;;;;;;24.47;73.69;99914.67;1762643;79;21089;-75
2022/06/29 01:59:06;;;;;;;18.17;16.07;;;;;;;24.46;74.15;99922.52;1776583;79;21006;-72
2022/06/29 02:01:34;;;;;;;16.75;15.10;;;;;;;24.43;74.43;99923.57;1775176;79;21019;-73
2022/06/29 02:04:00;;;;;;;15.50;14.00;;;;;;;24.37;74.86;99926.77;1759304;80;21022;-73
2022/06/29 02:06:27;;;;;;;15.00;13.80;;;;;;;24.40;75.03;99934.41;1767507;80;20993;-73
2022/06/29 02:08:53;;;;;;;16.05;14.63;;;;;;;24.46;74.87;99929.86;1775082;80;21246;-74
2022/06/29 02:11:20;;;;;;;15.15;13.83;;;;;;;24.44;74.83;99933.37;1758672;80;21529;-73
2022/06/29 02:13:47;;;;;;;16.80;15.30;;;;;;;24.41;74.99;99935.22;1773216;80;21026;-74
2022/06/29 02:16:16;;;;;;;15.60;14.38;;;;;;;24.36;75.16;99937.88;1716595;80;21206;-73
2022/06/29 02:18:43;;;;;;;15.03;13.58;;;;;;;24.29;75.47;99947.58;1772377;79;21023;-76
2022/06/29 02:21:10;;;;;;;15.30;14.00;;;;;;;24.30;75.83;99950.59;1797077;78;22659;-76
2022/06/29 02:23:38;;;;;;;15.63;14.18;;;;;;;24.38;75.66;99961.00;1810757;77;20989;-76
2022/06/29 02:26:06;;;;;;;15.32;13.80;;;;;;;24.35;75.44;99954.70;1808645;77;20993;-74
2022/06/29 02:28:33;;;;;;;14.75;13.55;;;;;;;24.32;75.31;99960.11;1786635;80;21041;-78
2022/06/29 02:36:30;;;;;;;15.63;13.53;;;;;;;24.28;74.62;99962.22;1787656;80;22286;-76
2022/06/29 02:38:56;;;;;;;14.98;13.68;;;;;;;24.36;74.23;99965.86;1787012;80;21064;-76
2022/06/29 02:41:22;;;;;;;16.23;14.60;;;;;;;24.43;73.91;99961.03;1789108;80;21001;-74
2022/06/29 02:43:49;;;;;;;14.78;13.50;;;;;;;24.43;73.98;99965.11;1792041;80;21057;-75
2022/06/29 02:46:15;;;;;;;15.32;13.93;;;;;;;24.44;73.58;99958.62;1781890;80;21101;-74
2022/06/29 02:48:42;;;;;;;15.72;14.38;;;;;;;24.46;73.40;99951.58;1785703;79;21064;-73
2022/06/29 02:51:09;;;;;;;16.55;13.43;;;;;;;24.46;74.18;99963.25;1792857;80;21533;-75
2022/06/29 02:53:35;;;;;;;14.60;13.25;;;;;;;24.50;73.56;99957.59;1768355;80;21627;-74
2022/06/29 02:56:03;;;;;;;14.68;13.40;;;;;;;24.60;73.14;99946.59;1748821;80;21097;-78
2022/06/29 02:58:30;;;;;;;15.35;13.90;;;;;;;24.63;73.01;99947.45;1768274;80;21076;-78
2022/06/29 03:00:56;;;;;;;15.72;14.38;;;;;;;24.62;72.26;99957.47;1790664;78;21055;-77
2022/06/29 03:03:23;;;;;;;15.25;13.80;;;;;;;24.63;72.50;99956.41;1800410;79;20942;-76
2022/06/29 03:05:49;;;;;;;15.70;12.82;;;;;;;24.67;72.27;99951.30;1803290;79;20953;-76
2022/06/29 03:08:17;;;;;;;14.75;13.50;;;;;;;24.70;72.29;99948.86;1801857;79;21038;-77
2022/06/29 03:10:43;;;;;;;15.00;13.70;;;;;;;24.73;72.48;99955.70;1790383;79;21637;-79
2022/06/29 03:13:10;;;;;;;13.60;12.30;;;;;;;24.84;72.36;99962.87;1783617;79;21037;-76
2022/06/29 03:15:37;;;;;;;14.87;13.30;;;;;;;25.00;71.81;99957.58;1786906;79;21025;-78
2022/06/29 03:18:04;;;;;;;14.07;12.88;;;;;;;25.09;71.46;99966.36;1786664;79;21072;-77
2022/06/29 03:20:31;;;;;;;15.15;13.72;;;;;;;25.19;71.26;99960.19;1795470;78;21064;-75
2022/06/29 03:22:57;;;;;;;14.50;13.22;;;;;;;25.27;71.46;99956.20;1797152;79;21098;-75
2022/06/29 03:25:24;;;;;;;14.55;13.30;;;;;;;25.33;71.39;99953.80;1790722;79;21025;-74
2022/06/29 03:27:50;;;;;;;15.58;14.07;;;;;;;25.38;71.17;99953.00;1766562;79;21596;-74
2022/06/29 03:30:18;;;;;;;15.50;14.00;;;;;;;25.42;71.02;99950.03;1763843;79;21022;-78
2022/06/29 03:32:45;;;;;;;18.55;16.60;;;;;;;25.46;70.24;99949.27;1764546;80;21021;-77
2022/06/29 03:35:11;;;;;;;14.60;13.32;;;;;;;25.50;69.80;99946.84;1783782;80;21111;-77
2022/06/29 03:37:38;;;;;;;13.50;12.20;;;;;;;25.54;69.92;99940.34;1769301;79;21037;-76
2022/06/29 03:40:06;;;;;;;14.63;13.32;;;;;;;25.58;70.13;99941.45;1761593;80;21014;-77
2022/06/29 03:42:32;;;;;;;13.98;12.82;;;;;;;25.66;70.10;99943.13;1759936;80;21014;-77
2022/06/29 03:44:59;;;;;;;13.05;11.95;;;;;;;25.80;70.21;99954.91;1771982;80;21022;-73
2022/06/29 03:47:26;;;;;;;15.45;13.90;;;;;;;25.84;70.42;99956.02;1779851;80;21218;-74
2022/06/29 03:49:53;;;;;;;14.33;13.08;;;;;;;25.87;70.95;99956.30;1782175;80;21041;-74
2022/06/29 03:52:19;;;;;;;15.08;13.78;;;;;;;25.90;70.51;99953.59;1791623;80;21104;-76
2022/06/29 03:54:46;;;;;;;14.80;13.60;;;;;;;25.98;70.47;99954.50;1782967;79;21026;-77
2022/06/29 03:57:12;;;;;;;14.87;13.58;;;;;;;26.05;70.53;99947.44;1761640;80;21026;-76
2022/06/29 03:59:39;;;;;;;14.23;12.93;;;;;;;26.14;68.51;99946.40;1779532;80;21177;-75
2022/06/29 04:02:06;;;;;;;13.72;12.60;;;;;;;26.21;67.30;99934.17;1766095;80;21045;-76
2022/06/29 04:04:33;;;;;;;14.55;13.35;;;;;;;26.29;66.13;99932.84;1763341;80;21107;-75
2022/06/29 04:07:01;;;;;;;14.20;12.78;;;;;;;26.37;65.52;99932.31;1760833;80;21026;-76
2022/06/29 04:09:28;;;;;;;13.90;12.70;;;;;;;26.43;64.92;99923.06;1780774;79;20970;-76
2022/06/29 04:11:56;;;;;;;12.73;11.63;;;;;;;26.48;64.74;99922.23;1791342;80;22015;-77
2022/06/29 04:14:25;;;;;;;13.28;12.07;;;;;;;26.53;64.08;99929.62;1780246;79;21033;-77
2022/06/29 04:16:52;;;;;;;13.18;12.10;;;;;;;26.57;63.79;99921.99;1789918;79;21100;-78
2022/06/29 04:19:19;;;;;;;12.75;11.65;;;;;;;26.61;63.43;99923.12;1790607;79;21037;-76
2022/06/29 04:21:46;;;;;;;12.23;11.22;;;;;;;26.65;62.74;99924.77;1772158;80;21387;-77
2022/06/29 04:24:13;;;;;;;12.88;11.88;;;;;;;26.70;62.07;99928.05;1769254;79;21145;-75
2022/06/29 04:26:40;;;;;;;12.95;11.85;;;;;;;26.77;61.78;99930.79;1765162;79;21155;-75
2022/06/29 04:29:07;;;;;;;13.58;12.45;;;;;;;26.86;61.67;99925.05;1769282;78;21069;-75
2022/06/29 04:31:34;;;;;;;13.48;12.37;;;;;;;26.94;61.71;99922.33;1782290;80;21036;-75
2022/06/29 04:34:02;;;;;;;14.28;12.98;;;;;;;27.00;61.75;99927.23;1764557;79;21509;-77
2022/06/29 04:36:30;;;;;;;13.43;12.30;;;;;;;27.09;61.68;99926.16;1776152;79;21291;-78
2022/06/29 04:38:57;;;;;;;13.93;12.53;;;;;;;27.19;61.33;99920.69;1783848;79;21037;-76
2022/06/29 04:41:24;;;;;;;13.28;12.25;;;;;;;27.29;61.26;99922.63;1756433;79;21037;-77
2022/06/29 04:43:50;;;;;;;12.80;11.70;;;;;;;27.42;61.16;99922.06;1764915;79;21021;-76
2022/06/29 04:46:20;;;;;;;12.93;11.83;;;;;;;27.53;60.31;99926.96;1780390;79;21036;-76
2022/06/29 04:48:59;;;;;;;13.13;12.03;;;;;;;27.63;59.63;99921.47;1784555;79;21076;-72
2022/06/29 04:51:30;;;;;;;12.58;11.33;;;;;;;27.71;58.64;99922.25;1763302;79;21014;-74
2022/06/29 04:53:57;;;;;;;13.40;12.30;;;;;;;27.75;58.19;99923.89;1785504;80;21041;-75
2022/06/29 04:56:27;;;;;;;12.30;11.30;;;;;;;27.75;57.95;99915.70;1783275;80;21505;-77
2022/06/29 04:58:53;;;;;;;12.63;11.43;;;;;;;27.81;58.04;99916.75;1767969;79;21584;-77
2022/06/29 05:01:22;;;;;;;11.97;10.78;;;;;;;27.88;57.69;99921.97;1780869;79;22144;-74
2022/06/29 05:03:49;;;;;;;12.33;11.15;;;;;;;27.96;57.31;99919.20;1789401;79;21017;-76
2022/06/29 05:06:16;;;;;;;12.20;11.20;;;;;;;28.00;57.35;99921.64;1821946;78;21055;-77
2022/06/29 05:08:42;;;;;;;12.75;11.50;;;;;;;28.04;56.59;99923.52;1795761;78;21028;-80
2022/06/29 05:11:09;;;;;;;11.35;10.35;;;;;;;28.03;56.73;99921.91;1756418;79;21113;-78
2022/06/29 05:13:36;;;;;;;12.33;11.33;;;;;;;28.08;56.79;99923.78;1752484;79;21482;-76
2022/06/29 05:16:04;;;;;;;12.70;11.63;;;;;;;28.18;56.81;99916.93;1782193;79;21061;-76
2022/06/29 05:18:33;;;;;;;13.28;12.00;;;;;;;28.28;56.63;99918.79;1783129;79;21061;-74
2022/06/29 05:21:00;;;;;;;13.00;11.85;;;;;;;28.35;56.71;99916.54;1788127;79;21084;-75
2022/06/29 05:23:27;;;;;;;13.30;12.30;;;;;;;28.39;56.74;99917.60;1802299;78;21020;-76
2022/06/29 05:25:53;;;;;;;12.10;11.10;;;;;;;28.53;56.74;99917.84;1804522;77;21047;-76
2022/06/29 05:28:21;;;;;;;11.25;10.25;;;;;;;28.73;56.16;99914.70;1781653;80;21134;-77
2022/06/29 05:30:47;;;;;;;12.20;10.70;;;;;;;28.83;55.11;99918.16;1820012;78;21076;-75
2022/06/29 05:33:14;;;;;;;10.38;9.38;;;;;;;28.89;54.55;99912.66;1781581;78;21028;-76
2022/06/29 05:35:41;;;;;;;10.95;9.88;;;;;;;28.88;54.07;99912.38;1816529;78;21012;-76
2022/06/29 05:38:07;;;;;;;11.53;10.53;;;;;;;28.89;54.00;99931.80;1827366;78;21487;-76
2022/06/29 05:40:35;;;;;;;10.32;9.43;;;;;;;28.92;54.10;99933.42;1779228;80;21049;-75
2022/06/29 05:43:03;;;;;;;11.28;10.20;;;;;;;28.96;54.10;99924.09;1790743;80;21496;-79
2022/06/29 05:45:29;;;;;;;10.72;9.83;;;;;;;28.98;54.22;99919.16;1762266;80;21097;-78
2022/06/29 05:47:56;;;;;;;11.50;10.60;;;;;;;29.01;54.40;99923.50;1792961;80;21037;-76
2022/06/29 05:50:23;;;;;;;12.13;11.10;;;;;;;29.07;54.72;99931.64;1785394;78;21088;-75
2022/06/29 05:52:51;;;;;;;13.00;11.03;;;;;;;29.13;54.95;99934.09;1826727;78;20977;-74
2022/06/29 05:55:18;;;;;;;12.15;11.15;;;;;;;29.19;55.47;99930.77;1793321;80;21040;-77
2022/06/29 05:57:45;;;;;;;13.58;12.25;;;;;;;29.21;55.70;99935.40;1797548;78;21104;-75
2022/06/29 06:00:13;;;;;;;12.78;11.57;;;;;;;29.21;56.29;99933.47;1815090;77;21047;-76
2022/06/29 06:02:39;;;;;;;14.98;13.38;;;;;;;29.24;56.43;99932.63;1823668;77;21134;-76
2022/06/29 06:05:07;;;;;;;13.80;12.63;;;;;;;29.21;56.33;99933.47;1793918;78;21492;-76
2022/06/29 06:07:33;;;;;;;14.00;12.70;;;;;;;29.23;56.24;99937.30;1809009;78;21100;-74
2022/06/29 06:10:00;;;;;;;15.08;13.78;;;;;;;29.25;56.34;99935.08;1813599;78;21009;-73
2022/06/29 06:12:28;;;;;;;14.70;13.35;;;;;;;29.24;56.14;99936.17;1823127;78;21557;-72
2022/06/29 06:15:01;;;;;;;14.68;13.38;;;;;;;29.20;56.02;99937.30;1778879;78;21238;-74
2022/06/29 06:17:28;;;;;;;14.75;13.32;;;;;;;29.18;56.04;99934.59;1811837;78;21726;-75
2022/06/29 06:19:58;;;;;;;14.35;12.85;;;;;;;29.19;56.00;99934.31;1782874;80;21131;-78
2022/06/29 06:22:25;;;;;;;14.23;13.00;;;;;;;29.25;56.03;99937.02;1784164;78;21033;-74
2022/06/29 06:38:14;;;;;;;13.60;12.40;;;;;;;30.55;54.01;99905.91;1747350;79;22794;-76
2022/06/29 06:43:25;;;;;;;14.63;13.43;;;;;;;30.68;53.62;99911.20;1692259;83;21827;-71
2022/06/29 06:45:51;;;;;;;14.83;13.40;;;;;;;30.57;53.66;99909.16;1688510;83;21580;-72
2022/06/29 06:48:18;;;;;;;15.60;14.30;;;;;;;30.44;53.89;99901.12;1691944;83;21017;-69
2022/06/29 06:50:44;;;;;;;15.32;14.03;;;;;;;30.35;54.09;99906.47;1682919;83;21076;-72
2022/06/29 06:53:11;;;;;;;15.35;14.03;;;;;;;30.26;54.13;99893.70;1687043;83;21125;-72
2022/06/29 06:55:38;;;;;;;14.60;13.25;;;;;;;30.17;54.46;99896.27;1686407;83;21215;-72
2022/06/29 06:58:04;;;;;;;15.53;13.72;;;;;;;30.15;54.69;99891.64;1690232;83;21009;-74
2022/06/29 07:00:31;;;;;;;15.30;14.10;;;;;;;30.14;54.87;99890.03;1695179;83;21035;-72
2022/06/29 07:02:57;;;;;;;15.20;13.78;;;;;;;30.15;54.79;99892.48;1700144;83;21073;-72
2022/06/29 07:05:25;;;;;;;14.93;13.58;;;;;;;30.15;54.69;99886.16;1679675;85;21044;-72
2022/06/29 07:07:52;;;;;;;14.73;13.50;;;;;;;30.14;54.82;99890.83;1690784;83;21912;-71
2022/06/29 07:10:18;;;;;;;15.38;13.88;;;;;;;30.13;55.02;99896.07;1656505;85;21069;-72
2022/06/29 07:12:46;;;;;;;15.95;14.75;;;;;;;30.13;54.91;99896.07;1691366;83;21056;-72
2022/06/29 07:15:13;;;;;;;15.90;14.40;;;;;;;30.12;54.94;99894.98;1692925;83;21110;-72
2022/06/29 07:17:40;;;;;;;15.83;14.40;;;;;;;30.07;55.30;99892.30;1684879;83;21115;-74
2022/06/29 07:20:08;;;;;;;15.83;14.47;;;;;;;30.05;55.31;99886.31;1685055;83;21749;-72
2022/06/29 07:22:34;;;;;;;17.25;15.65;;;;;;;30.03;55.38;99885.23;1686501;83;22056;-72
2022/06/29 07:25:02;;;;;;;16.17;14.87;;;;;;;30.02;55.41;99887.72;1690202;83;21030;-71
2022/06/29 07:27:29;;;;;;;15.40;14.25;;;;;;;30.04;56.26;99883.30;1694947;83;21056;-72
2022/06/29 07:29:55;;;;;;;16.35;15.03;;;;;;;30.06;55.63;99879.73;1687198;83;21576;-74
2022/06/29 07:32:22;;;;;;;17.98;15.25;;;;;;;30.05;55.57;99883.01;1697489;83;21329;-73
2022/06/29 07:34:48;;;;;;;16.05;14.80;;;;;;;30.05;55.84;99891.79;1692463;83;21521;-73
2022/06/29 07:37:15;;;;;;;15.88;14.68;;;;;;;30.09;55.58;99884.61;1686488;83;21553;-69
2022/06/29 07:39:42;;;;;;;16.07;14.78;;;;;;;30.11;55.69;99886.50;1689842;83;21157;-71
2022/06/29 07:42:09;;;;;;;15.65;14.38;;;;;;;30.15;55.62;99886.16;1695330;83;21571;-72
2022/06/29 07:44:37;;;;;;;15.23;14.00;;;;;;;30.15;55.31;99882.89;1691322;83;21156;-73
2022/06/29 07:47:04;;;;;;;15.38;14.18;;;;;;;30.15;54.92;99877.95;1690682;83;21005;-73
2022/06/29 07:49:31;;;;;;;14.63;13.43;;;;;;;30.17;55.38;99881.20;1692527;83;21113;-73
2022/06/29 07:51:57;;;;;;;14.73;13.43;;;;;;;30.19;54.99;99874.87;1688927;83;21141;-73
2022/06/29 07:54:23;;;;;;;16.30;14.90;;;;;;;30.22;55.01;99877.03;1688160;85;21190;-73
2022/06/29 07:56:50;;;;;;;14.80;13.62;;;;;;;30.28;54.72;99872.30;1665107;85;21780;-74
2022/06/29 07:59:16;;;;;;;15.32;14.15;;;;;;;30.32;54.43;99865.14;1687212;83;21065;-72
2022/06/29 08:01:43;;;;;;;15.78;14.47;;;;;;;30.37;54.33;99867.81;1699973;83;21649;-73
2022/06/29 08:04:10;;;;;;;14.93;13.72;;;;;;;30.44;54.04;99862.75;1670896;83;21576;-72
2022/06/29 08:06:36;;;;;;;15.83;14.23;;;;;;;30.48;53.96;99862.44;1686097;83;21379;-72
2022/06/29 08:09:03;;;;;;;15.00;13.65;;;;;;;30.49;54.42;99854.45;1688979;83;21085;-74
2022/06/29 08:11:29;;;;;;;14.83;13.60;;;;;;;30.53;54.32;99858.79;1690179;83;21499;-75
2022/06/29 08:13:57;;;;;;;15.18;13.90;;;;;;;30.57;53.83;99857.08;1687377;83;21638;-74
2022/06/29 08:16:23;;;;;;;14.63;13.32;;;;;;;30.64;53.73;99858.08;1695464;83;21097;-74
2022/06/29 08:18:50;;;;;;;13.90;12.78;;;;;;;30.72;52.70;99864.25;1701034;83;21117;-74
2022/06/29 08:21:17;;;;;;;13.98;12.85;;;;;;;30.76;52.18;99852.37;1681818;83;21529;-75
2022/06/29 08:23:44;;;;;;;14.05;12.85;;;;;;;30.85;51.77;99855.78;1672109;83;21515;-75
2022/06/29 08:26:11;;;;;;;13.65;12.60;;;;;;;30.94;51.37;99858.13;1682859;85;21077;-74
2022/06/29 08:28:37;;;;;;;14.58;13.25;;;;;;;31.02;51.10;99863.48;1682364;83;20990;-75
2022/06/29 08:31:04;;;;;;;15.25;13.70;;;;;;;31.08;51.37;99867.76;1681167;83;21073;-74
2022/06/29 08:33:30;;;;;;;13.83;12.75;;;;;;;31.06;51.22;99860.39;1691589;83;21284;-73
2022/06/29 08:35:57;;;;;;;13.03;12.03;;;;;;;31.05;50.34;99871.12;1680697;84;21106;-74
2022/06/29 08:38:23;;;;;;;15.78;12.73;;;;;;;31.00;49.98;99865.15;1693409;83;21576;-73
2022/06/29 08:40:50;;;;;;;15.05;13.65;;;;;;;31.03;50.47;99874.16;1692701;83;21068;-73
2022/06/29 08:43:18;;;;;;;14.40;13.25;;;;;;;31.15;50.13;99874.48;1694051;83;21565;-74
2022/06/29 08:45:47;;;;;;;15.45;14.00;;;;;;;31.26;50.53;99875.11;1701083;83;21828;-75
2022/06/29 08:48:14;;;;;;;14.10;12.80;;;;;;;31.39;51.12;99875.42;1700072;83;21025;-74
2022/06/29 08:50:43;;;;;;;15.58;14.23;;;;;;;31.50;50.62;99875.52;1694104;83;21518;-76
2022/06/29 08:53:14;;;;;;;14.87;13.40;;;;;;;31.64;50.56;99871.39;1696405;83;21469;-76
2022/06/29 08:55:48;;;;;;;14.38;12.95;;;;;;;31.81;51.00;99868.83;1683626;83;21054;-76
2022/06/29 08:58:20;;;;;;;13.30;12.20;;;;;;;32.00;49.96;99866.53;1695715;84;21232;-76
2022/06/29 09:00:47;;;;;;;13.85;12.60;;;;;;;32.13;49.52;99865.72;1686478;83;28661;-75
2022/06/29 09:03:15;;;;;;;13.48;12.10;;;;;;;32.36;49.58;99856.95;1713724;83;21049;-75
2022/06/29 09:05:48;;;;;;;13.65;12.37;;;;;;;32.64;48.77;99851.34;1703063;83;21055;-76
2022/06/29 09:08:16;;;;;;;13.68;12.63;;;;;;;32.85;48.44;99849.70;1687148;83;21022;-75
2022/06/29 09:10:45;;;;;;;12.70;11.40;;;;;;;33.09;47.58;99850.73;1705487;83;21037;-76
2022/06/29 09:13:12;;;;;;;12.80;11.80;;;;;;;33.32;47.22;99856.19;1693216;83;21121;-76
2022/06/29 09:15:40;;;;;;;12.13;11.08;;;;;;;33.59;46.54;99854.34;1693011;83;21046;-74
2022/06/29 09:18:31;;;;;;;12.53;11.63;;;;;;;33.80;45.87;99847.70;1680350;83;21061;-74
2022/06/29 09:21:03;;;;;;;12.73;11.48;;;;;;;34.02;45.44;99859.18;1692415;83;21507;-74
2022/06/29 09:23:30;;;;;;;12.65;11.78;;;;;;;34.35;44.63;99850.47;1695767;83;21542;-74
2022/06/29 09:25:57;;;;;;;11.70;10.70;;;;;;;34.73;44.21;99847.03;1698153;83;21050;-75
2022/06/29 09:28:30;;;;;;;10.55;9.65;;;;;;;35.20;43.47;99846.52;1697971;83;21089;-73
2022/06/29 09:30:57;;;;;;;10.90;10.05;;;;;;;35.72;41.77;99838.57;1699787;83;21033;-74
2022/06/29 09:33:28;;;;;;;10.45;9.45;;;;;;;36.16;40.44;99843.77;1708513;83;21030;-74
2022/06/29 09:36:17;;;;;;;11.33;10.30;;;;;;;36.58;40.72;99844.55;1689391;83;21074;-75
2022/06/29 09:38:44;;;;;;;11.08;10.15;;;;;;;37.06;39.63;99837.33;1690550;82;21546;-74
2022/06/29 09:41:14;;;;;;;11.38;10.32;;;;;;;37.51;39.42;99833.08;1725158;82;21043;-76
2022/06/29 09:43:44;;;;;;;11.38;10.38;;;;;;;37.80;38.91;99835.98;1704799;82;21046;-76
2022/06/29 09:46:13;;;;;;;10.70;9.70;;;;;;;38.01;37.67;99821.36;1682457;84;21560;-76
2022/06/29 09:48:41;;;;;;;11.03;10.13;;;;;;;38.29;38.58;99817.84;1682095;84;21071;-75
2022/06/29 09:53:59;;;;;;;10.82;9.88;;;;;;;38.90;36.27;99818.90;1675602;83;21045;-76
2022/06/29 09:56:29;;;;;;;10.98;10.18;;;;;;;39.13;35.77;99809.98;1697484;82;21070;-76
2022/06/29 09:59:01;;;;;;;11.40;10.55;;;;;;;39.31;36.26;99818.17;1700319;83;21053;-75
2022/06/29 10:04:14;;;;;;;12.63;11.53;;;;;;;39.66;36.48;99813.25;1693276;83;21654;-74
2022/06/29 10:06:40;;;;;;;11.65;10.70;;;;;;;39.91;35.58;99814.41;1676229;84;21013;-76
2022/06/29 10:09:07;;;;;;;12.13;11.22;;;;;;;40.12;35.53;99811.24;1686379;82;21038;-74
2022/06/29 10:15:28;;;;;;;11.65;10.53;;;;;;;40.69;35.30;99815.16;1722206;82;21204;-74
2022/06/29 10:18:32;;;;;;;11.75;10.85;;;;;;;40.84;34.79;99803.72;1703986;82;21548;-75
2022/06/29 10:20:59;;;;;;;12.45;11.15;;;;;;;41.01;34.12;99806.59;1702867;82;21469;-75
2022/06/29 10:23:46;;;;;;;11.38;10.68;;;;;;;41.20;33.77;99798.75;1700488;84;21337;-75
2022/06/29 10:26:32;;;;;;;11.68;10.78;;;;;;;41.33;33.94;99790.98;1693453;82;21535;-74
2022/06/29 10:29:19;;;;;;;10.75;10.00;;;;;;;41.41;33.99;99777.96;1707612;82;21252;-73
2022/06/29 10:32:01;;;;;;;12.00;11.15;;;;;;;41.58;33.97;99769.05;1708737;82;21559;-75
2022/06/29 10:34:41;;;;;;;11.50;10.55;;;;;;;42.11;32.20;99763.97;1715412;82;21105;-75
2022/06/29 10:37:13;;;;;;;10.93;9.93;;;;;;;42.11;32.20;99763.97;1704950;82;21022;-75
2022/06/29 10:39:51;;;;;;;9.65;8.95;;;;;;;42.32;31.53;99768.98;1694917;83;21533;-75
2022/06/29 10:45:24;;;;;;;10.80;9.98;;;;;;;42.15;31.42;99743.08;1692639;83;21532;-74
2022/06/29 10:48:06;;;;;;;10.10;9.30;;;;;;;42.24;32.26;99735.20;1693601;83;21102;-72
2022/06/29 10:50:38;;;;;;;9.45;8.65;;;;;;;42.24;32.26;99735.20;1696106;83;21021;-73
2022/06/29 10:53:12;;;;;;;10.58;8.88;;;;;;;42.56;30.95;99738.34;1711938;83;21355;-74
2022/06/29 10:55:48;;;;;;;9.45;8.65;;;;;;;42.75;30.57;99735.91;1687570;83;21255;-74
2022/06/29 10:58:14;;;;;;;9.53;8.73;;;;;;;42.97;30.10;99742.48;1686905;83;21030;-75
2022/06/29 11:00:46;;;;;;;10.25;8.93;;;;;;;43.04;29.41;99738.12;1678905;83;21833;-74
2022/06/29 11:03:22;;;;;;;9.23;8.63;;;;;;;43.15;29.14;99752.98;1689781;83;21106;-73
2022/06/29 11:16:54;;;;;;;8.50;7.90;;;;;;;43.72;28.15;99727.39;1685409;83;21105;-73
2022/06/29 11:19:28;;;;;;;8.45;7.85;;;;;;;43.78;28.69;99720.21;1698123;83;21021;-75
2022/06/29 11:22:18;;;;;;;8.58;7.87;;;;;;;43.74;28.68;99706.20;1706381;83;21168;-74
2022/06/29 11:24:57;;;;;;;9.28;8.55;;;;;;;43.68;28.51;99706.97;1669224;83;21124;-76
2022/06/29 11:27:37;;;;;;;9.48;8.75;;;;;;;43.85;28.78;99697.86;1685505;83;21077;-74
2022/06/29 11:30:08;;;;;;;8.20;7.70;;;;;;;44.21;29.01;99707.73;1668014;83;21090;-74
2022/06/29 11:32:47;;;;;;;9.10;8.40;;;;;;;44.35;28.34;99701.34;1697553;83;21553;-74
2022/06/29 11:35:19;;;;;;;9.00;8.30;;;;;;;44.42;28.71;99699.17;1674743;85;21193;-74
2022/06/29 11:37:57;;;;;;;10.10;9.20;;;;;;;44.55;28.94;99690.60;1652763;84;21042;-75
2022/06/29 11:40:34;;;;;;;9.65;8.95;;;;;;;44.69;29.00;99681.39;1701375;84;21335;-76
2022/06/29 11:43:15;;;;;;;8.63;8.00;;;;;;;44.56;29.29;99683.78;1710854;82;21051;-76
2022/06/29 11:45:52;;;;;;;9.65;8.83;;;;;;;44.20;28.00;99675.37;1693555;82;21675;-73
2022/06/29 11:48:22;;;;;;;9.93;8.68;;;;;;;43.56;29.18;99668.37;1694917;82;21977;-74
2022/06/29 11:51:02;;;;;;;9.98;9.08;;;;;;;42.83;30.71;99669.73;1673310;85;21113;-73
2022/06/29 11:53:48;;;;;;;10.15;9.13;;;;;;;42.09;31.70;99667.28;1676678;84;21073;-75
2022/06/29 11:56:20;;;;;;;10.32;9.35;;;;;;;41.43;32.84;99669.68;1676934;84;21085;-74
2022/06/29 11:58:51;;;;;;;10.30;9.40;;;;;;;40.72;34.18;99661.89;1700941;82;21026;-75
2022/06/29 12:01:20;;;;;;;10.80;9.33;;;;;;;40.05;35.23;99666.48;1711088;82;21292;-75
2022/06/29 12:03:57;;;;;;;10.32;9.43;;;;;;;39.32;36.00;99655.84;1696807;82;21041;-74
2022/06/29 12:06:26;;;;;;;10.60;9.73;;;;;;;38.65;36.68;99637.84;1673929;84;22159;-75
2022/06/29 12:08:54;;;;;;;10.88;9.83;;;;;;;38.04;37.72;99631.31;1683260;82;21069;-73
2022/06/29 12:11:21;;;;;;;10.80;9.83;;;;;;;37.49;37.91;99630.95;1701772;84;21108;-74